Time;durP1;ratioP1;P1;durP2;ratioP2;P2;SDS_P1;SDS_P2;PMS_P1;PMS_P2;Temp;Humidity;BMP_temperature;BMP_pressure;BME280_temperature;BME280_humidity;BME280_pressure;Samples;Min_cycle;Max_cycle;Signal;HPM_P1;HPM_P2
2022/12/02 00:01:19;;;;;;;2.95;1.17;;;23.60;59.00;;;;;;4124093;28;19925;-75
2022/12/02 00:03:42;;;;;;;7.82;1.70;;;23.60;58.70;;;;;;4125886;28;20030;-74
2022/12/02 00:06:12;;;;;;;9.07;1.33;;;23.70;58.60;;;;;;4109628;28;20081;-74
2022/12/02 00:08:36;;;;;;;5.90;1.98;;;23.70;57.40;;;;;;4124813;28;20042;-72
2022/12/02 00:11:01;;;;;;;8.10;1.65;;;23.70;56.30;;;;;;4109178;28;20050;-73
2022/12/02 00:13:31;;;;;;;6.43;1.23;;;23.70;55.80;;;;;;4109739;28;20042;-74
2022/12/02 00:16:00;;;;;;;8.23;1.40;;;23.70;55.60;;;;;;4124378;28;20038;-74
2022/12/02 00:18:23;;;;;;;3.15;1.10;;;23.60;55.50;;;;;;4124846;28;20046;-73
2022/12/02 00:20:46;;;;;;;4.05;1.38;;;23.60;55.50;;;;;;4107696;28;20489;-74
2022/12/02 00:23:08;;;;;;;2.80;1.25;;;23.60;55.50;;;;;;4122894;28;20042;-76
2022/12/02 00:25:31;;;;;;;3.08;1.02;;;23.60;55.30;;;;;;4119748;28;20042;-72
2022/12/02 00:27:57;;;;;;;2.30;0.80;;;23.60;55.30;;;;;;4121888;28;20330;-75
2022/12/02 00:30:19;;;;;;;3.00;1.10;;;23.60;55.30;;;;;;4123097;28;20034;-74
2022/12/02 00:32:42;;;;;;;2.95;1.10;;;23.60;55.30;;;;;;4108545;28;20130;-74
2022/12/02 00:35:05;;;;;;;4.15;1.13;;;23.60;55.20;;;;;;4121992;28;20051;-74
2022/12/02 00:37:27;;;;;;;2.83;1.27;;;23.60;55.20;;;;;;4118402;28;20042;-74
2022/12/02 00:39:50;;;;;;;5.95;1.08;;;23.60;55.20;;;;;;4125653;28;20042;-73
2022/12/02 00:42:13;;;;;;;3.63;1.15;;;23.60;55.20;;;;;;4121919;28;20031;-74
2022/12/02 00:47:16;;;;;;;2.38;1.20;;;23.60;55.10;;;;;;4121088;28;20496;-73
2022/12/02 00:49:38;;;;;;;3.95;1.25;;;23.50;55.00;;;;;;4109204;28;20042;-74
2022/12/02 00:52:01;;;;;;;3.38;1.10;;;23.50;55.00;;;;;;4124493;28;20095;-75
2022/12/02 00:54:23;;;;;;;1.23;0.90;;;23.50;55.00;;;;;;4124218;28;20081;-76
2022/12/02 00:56:46;;;;;;;3.60;1.00;;;23.50;55.00;;;;;;4123789;28;20038;-75
2022/12/02 00:59:08;;;;;;;2.53;0.90;;;23.50;55.00;;;;;;4122596;28;20034;-74
2022/12/02 01:01:32;;;;;;;2.92;1.25;;;23.50;55.40;;;;;;4108745;28;20035;-74
2022/12/02 01:03:55;;;;;;;;;;;23.50;55.00;;;;;;4117858;28;20042;-74
2022/12/02 01:06:17;;;;;;;1.80;0.85;;;23.50;55.00;;;;;;4110391;28;19960;-73
2022/12/02 01:08:40;;;;;;;1.92;1.20;;;23.50;55.00;;;;;;4122770;28;20066;-77
2022/12/02 01:11:03;;;;;;;2.63;1.02;;;23.50;55.00;;;;;;4109886;28;20525;-75
2022/12/02 01:13:27;;;;;;;2.28;1.33;;;23.50;54.90;;;;;;4107440;28;20046;-73
2022/12/02 01:15:55;;;;;;;2.53;1.08;;;23.60;55.00;;;;;;4108954;28;20587;-74
2022/12/02 01:18:18;;;;;;;1.65;1.17;;;23.60;55.00;;;;;;4109997;28;20030;-74
2022/12/02 01:20:40;;;;;;;2.45;0.98;;;23.60;55.00;;;;;;4123079;28;20046;-75
2022/12/02 01:23:03;;;;;;;2.00;0.90;;;23.60;55.00;;;;;;4122858;28;20042;-74
2022/12/02 01:25:26;;;;;;;2.72;1.15;;;23.60;55.00;;;;;;4118309;28;20106;-75
2022/12/02 01:27:48;;;;;;;1.27;0.80;;;23.60;55.00;;;;;;4124473;28;20063;-75
2022/12/02 01:30:11;;;;;;;1.67;0.85;;;23.60;55.00;;;;;;4110407;28;20035;-75
2022/12/02 01:32:34;;;;;;;2.13;1.13;;;23.60;55.00;;;;;;4109996;28;20043;-75
2022/12/02 01:34:56;;;;;;;2.15;1.08;;;23.60;54.90;;;;;;4109323;28;20062;-76
2022/12/02 01:37:19;;;;;;;1.88;0.95;;;23.60;54.90;;;;;;4108015;28;20038;-75
2022/12/02 01:39:42;;;;;;;1.77;0.80;;;23.60;54.90;;;;;;4125310;28;20112;-77
2022/12/02 01:42:05;;;;;;;1.67;1.23;;;23.60;54.80;;;;;;4122073;28;20046;-73
2022/12/02 01:44:27;;;;;;;3.65;1.30;;;23.60;54.80;;;;;;4107473;28;20090;-71
2022/12/02 01:46:50;;;;;;;1.17;0.85;;;23.60;54.80;;;;;;4108623;28;20397;-71
2022/12/02 01:49:13;;;;;;;2.22;0.77;;;23.70;54.90;;;;;;4109987;28;20477;-70
2022/12/02 01:51:35;;;;;;;1.60;0.82;;;23.70;54.90;;;;;;4112036;28;20635;-72
2022/12/02 01:53:58;;;;;;;2.13;1.00;;;23.70;54.90;;;;;;4105398;28;20039;-71
2022/12/02 01:56:21;;;;;;;1.45;0.75;;;23.70;54.80;;;;;;4106617;28;20219;-69
2022/12/02 01:58:43;;;;;;;2.13;0.95;;;23.70;54.80;;;;;;4118189;28;20061;-70
2022/12/02 02:01:26;;;;;;;2.67;1.02;;;23.70;54.80;;;;;;4123616;28;20556;-71
2022/12/02 02:03:49;;;;;;;2.42;1.10;;;23.80;54.80;;;;;;4110114;28;20039;-70
2022/12/02 02:06:11;;;;;;;2.83;1.20;;;23.70;54.70;;;;;;4114470;28;20520;-69
2022/12/02 02:08:34;;;;;;;2.05;1.08;;;23.80;54.80;;;;;;4111595;28;20548;-70
2022/12/02 02:10:59;;;;;;;2.53;1.00;;;23.80;54.80;;;;;;4124325;28;20038;-69
2022/12/02 02:13:22;;;;;;;2.42;1.02;;;23.80;54.80;;;;;;4110898;28;20330;-70
2022/12/02 02:15:45;;;;;;;2.08;0.77;;;23.80;54.70;;;;;;4123761;28;20128;-71
2022/12/02 02:18:08;;;;;;;2.90;0.95;;;23.80;54.60;;;;;;4125460;28;20959;-70
2022/12/02 02:20:31;;;;;;;2.75;0.80;;;23.80;54.60;;;;;;4112084;28;20537;-70
2022/12/02 02:23:06;;;;;;;3.60;0.98;;;23.80;54.60;;;;;;4129393;28;20034;-69
2022/12/02 02:25:29;;;;;;;1.52;0.77;;;23.80;54.60;;;;;;4124776;28;20058;-70
2022/12/02 02:27:58;;;;;;;1.08;0.88;;;23.80;54.60;;;;;;4121560;28;20078;-69
2022/12/02 02:30:21;;;;;;;2.13;1.35;;;23.80;54.60;;;;;;4124860;28;20038;-71
2022/12/02 02:32:43;;;;;;;1.90;0.80;;;23.80;54.50;;;;;;4136792;23;20050;-44
2022/12/02 02:35:11;;;;;;;1.13;0.63;;;23.80;54.40;;;;;;4103789;28;20050;-47
2022/12/02 02:37:34;;;;;;;2.05;0.82;;;23.90;54.50;;;;;;4103658;28;20039;-48
2022/12/02 02:39:56;;;;;;;3.92;0.95;;;23.90;54.50;;;;;;4105811;28;20569;-46
2022/12/02 02:42:19;;;;;;;3.60;1.20;;;23.90;54.40;;;;;;4104292;28;20038;-51
2022/12/02 02:44:42;;;;;;;2.65;0.98;;;23.90;54.40;;;;;;4104788;28;20056;-50
2022/12/02 02:47:04;;;;;;;2.00;0.70;;;23.90;54.40;;;;;;4103785;28;20053;-46
2022/12/02 02:49:27;;;;;;;2.38;0.90;;;23.90;54.50;;;;;;4103327;28;20074;-49
2022/12/02 02:51:50;;;;;;;2.45;1.10;;;23.90;54.40;;;;;;4104004;28;20039;-47
2022/12/02 02:54:12;;;;;;;2.72;1.02;;;23.90;54.40;;;;;;4103587;28;20047;-47
2022/12/02 02:56:35;;;;;;;3.30;0.98;;;24.00;54.50;;;;;;4105351;28;20478;-50
2022/12/02 02:58:57;;;;;;;1.83;1.13;;;24.00;54.50;;;;;;4102233;28;20398;-48
2022/12/02 03:01:28;;;;;;;1.13;0.68;;;24.00;54.50;;;;;;4105460;28;20050;-47
2022/12/02 03:07:35;;;;;;;1.85;0.90;;;24.00;54.40;;;;;;4184858;27;20445;-44
2022/12/02 03:09:58;;;;;;;2.97;0.97;;;24.00;54.40;;;;;;4154878;28;20041;-42
2022/12/02 03:12:21;;;;;;;2.80;1.00;;;24.00;54.40;;;;;;4159309;28;20414;-42
2022/12/02 03:14:44;;;;;;;2.53;0.80;;;24.00;54.40;;;;;;4161070;28;20040;-45
2022/12/02 03:17:07;;;;;;;2.45;0.80;;;24.00;54.40;;;;;;4159609;28;20519;-46
2022/12/02 03:19:31;;;;;;;1.15;0.70;;;24.10;54.50;;;;;;4155352;28;20045;-41
2022/12/02 03:21:54;;;;;;;1.70;0.75;;;24.10;54.40;;;;;;4163457;28;20090;-41
2022/12/02 03:24:17;;;;;;;0.68;0.50;;;24.00;54.30;;;;;;4170697;28;20308;-42
2022/12/02 03:26:40;;;;;;;1.55;0.90;;;24.10;54.50;;;;;;4159805;28;20053;-45
2022/12/02 03:29:04;;;;;;;1.95;0.73;;;24.10;54.40;;;;;;4158734;28;20433;-44
2022/12/02 03:31:27;;;;;;;2.00;0.80;;;24.10;54.40;;;;;;4170963;28;20045;-44
2022/12/02 03:33:50;;;;;;;2.25;1.10;;;24.10;54.40;;;;;;4180525;28;20064;-43
2022/12/02 03:36:13;;;;;;;3.38;1.13;;;24.10;54.30;;;;;;4174885;28;20047;-43
2022/12/02 03:38:37;;;;;;;3.30;1.00;;;24.10;54.30;;;;;;4175733;28;20439;-43
2022/12/02 03:41:02;;;;;;;1.00;0.75;;;24.20;54.40;;;;;;4175338;28;20514;-42
2022/12/02 03:43:24;;;;;;;2.67;0.77;;;24.20;54.30;;;;;;4186147;28;20041;-43
2022/12/02 03:45:47;;;;;;;1.08;0.80;;;24.20;54.30;;;;;;4174529;28;20097;-42
2022/12/02 03:48:10;;;;;;;1.27;0.68;;;24.20;54.20;;;;;;4173339;28;20179;-41
2022/12/02 03:50:33;;;;;;;1.10;0.60;;;24.20;54.10;;;;;;4177861;28;20071;-47
2022/12/02 03:52:55;;;;;;;1.50;0.80;;;24.30;54.10;;;;;;4176531;28;20887;-43
2022/12/02 03:55:18;;;;;;;1.50;0.82;;;24.30;54.10;;;;;;4168594;28;20040;-44
2022/12/02 03:57:41;;;;;;;2.17;0.60;;;24.30;54.10;;;;;;4184176;28;20036;-43
2022/12/02 04:00:05;;;;;;;2.83;1.00;;;24.30;54.00;;;;;;4181857;28;20098;-43
2022/12/02 04:02:29;;;;;;;0.80;0.63;;;24.30;53.90;;;;;;4183700;28;20040;-41
2022/12/02 04:04:51;;;;;;;1.33;0.80;;;24.40;53.80;;;;;;4181244;28;20053;-42
2022/12/02 04:07:14;;;;;;;1.20;0.60;;;24.40;53.80;;;;;;4165328;28;20053;-41
2022/12/02 04:09:36;;;;;;;2.85;0.77;;;24.50;53.90;;;;;;4163540;28;20083;-41
2022/12/02 04:12:02;;;;;;;1.83;0.90;;;24.50;53.80;;;;;;4164588;28;20041;-41
2022/12/02 04:14:25;;;;;;;2.22;0.90;;;24.50;53.70;;;;;;4149889;28;20487;-41
2022/12/02 04:16:47;;;;;;;2.35;0.73;;;24.50;53.70;;;;;;4169805;28;20510;-41
2022/12/02 04:19:14;;;;;;;1.73;0.80;;;24.60;53.60;;;;;;4157013;28;20715;-42
2022/12/02 04:21:39;;;;;;;1.70;0.63;;;24.60;53.50;;;;;;4152753;28;20067;-44
2022/12/02 04:24:05;;;;;;;2.38;1.00;;;24.60;53.40;;;;;;4152761;28;20049;-42
2022/12/02 04:26:37;;;;;;;2.25;0.82;;;24.60;53.50;;;;;;4158053;28;20910;-44
2022/12/02 04:29:00;;;;;;;2.70;1.23;;;24.60;53.40;;;;;;4156405;28;20036;-45
2022/12/02 04:31:23;;;;;;;1.77;0.57;;;24.70;53.50;;;;;;4162207;28;20036;-45
2022/12/02 04:33:45;;;;;;;1.80;0.93;;;24.70;53.40;;;;;;4159589;28;20651;-43
2022/12/02 04:36:12;;;;;;;2.25;0.90;;;24.80;53.30;;;;;;4163082;28;20037;-40
2022/12/02 04:38:37;;;;;;;1.80;0.98;;;24.80;53.20;;;;;;4147612;28;20067;-41
2022/12/02 04:41:06;;;;;;;1.48;0.60;;;24.80;53.10;;;;;;4158355;28;20467;-40
2022/12/02 04:43:32;;;;;;;1.83;0.88;;;24.90;53.10;;;;;;4157095;28;20105;-40
2022/12/02 04:45:55;;;;;;;1.08;0.60;;;25.00;53.00;;;;;;4168136;28;20100;-41
2022/12/02 04:48:18;;;;;;;1.75;0.70;;;25.10;52.90;;;;;;4161418;28;20039;-41
2022/12/02 04:50:46;;;;;;;2.95;0.95;;;25.10;52.70;;;;;;4155329;28;20036;-43
2022/12/02 04:53:09;;;;;;;1.73;0.82;;;25.20;52.70;;;;;;4153894;28;20131;-44
2022/12/02 04:55:34;;;;;;;2.10;0.82;;;25.20;52.50;;;;;;4148847;28;20203;-44
2022/12/02 04:57:57;;;;;;;1.08;0.60;;;25.30;52.40;;;;;;4158039;28;20045;-42
2022/12/02 05:00:20;;;;;;;1.15;0.82;;;25.40;52.30;;;;;;4151578;28;20066;-47
2022/12/02 05:02:43;;;;;;;1.27;0.80;;;25.40;52.10;;;;;;4147197;28;20385;-41
2022/12/02 05:05:09;;;;;;;1.95;0.88;;;25.40;52.00;;;;;;4137803;28;20036;-43
2022/12/02 05:07:33;;;;;;;1.52;1.05;;;25.50;51.90;;;;;;4150824;28;20059;-45
2022/12/02 05:09:55;;;;;;;;;;;25.60;52.00;;;;;;4151504;28;20033;-47
2022/12/02 05:12:23;;;;;;;1.40;0.90;;;25.60;51.90;;;;;;4148747;28;20534;-42
2022/12/02 05:14:48;;;;;;;1.48;0.75;;;25.70;51.80;;;;;;4145796;28;20045;-45
2022/12/02 05:17:11;;;;;;;2.25;1.33;;;25.70;51.70;;;;;;4156643;28;20400;-45
2022/12/02 05:19:33;;;;;;;3.13;1.00;;;25.80;51.70;;;;;;4146787;28;20456;-45
2022/12/02 05:21:56;;;;;;;2.55;1.10;;;25.90;51.60;;;;;;4148404;28;20037;-42
2022/12/02 05:24:19;;;;;;;1.30;0.82;;;25.90;51.50;;;;;;4149654;28;20227;-43
2022/12/02 05:26:42;;;;;;;1.85;1.10;;;26.00;51.50;;;;;;4147954;28;20185;-48
2022/12/02 05:29:07;;;;;;;2.25;1.10;;;26.00;51.40;;;;;;4152527;28;20033;-44
2022/12/02 05:31:30;;;;;;;2.95;1.02;;;26.00;51.30;;;;;;4153584;28;20037;-43
2022/12/02 05:33:59;;;;;;;2.33;1.20;;;26.10;51.20;;;;;;4150627;28;20045;-42
2022/12/02 05:36:30;;;;;;;2.30;1.13;;;26.10;51.10;;;;;;4149852;28;21295;-47
2022/12/02 05:38:53;;;;;;;1.90;1.00;;;26.20;51.10;;;;;;4152388;28;20089;-48
2022/12/02 05:41:16;;;;;;;1.23;0.98;;;26.20;51.00;;;;;;4149202;28;20029;-43
2022/12/02 05:43:41;;;;;;;1.87;1.00;;;26.30;50.90;;;;;;4156171;28;20098;-43
2022/12/02 05:46:14;;;;;;;2.65;1.13;;;26.30;50.80;;;;;;4165220;28;20080;-43
2022/12/02 05:48:37;;;;;;;4.17;1.00;;;26.40;50.80;;;;;;4157049;28;20036;-43
2022/12/02 05:51:00;;;;;;;2.55;1.33;;;26.40;50.70;;;;;;4155552;28;20353;-42
2022/12/02 05:53:27;;;;;;;1.80;1.20;;;26.50;50.60;;;;;;4167553;28;20151;-44
2022/12/02 05:55:54;;;;;;;2.85;1.10;;;26.50;50.50;;;;;;4155483;28;20037;-43
2022/12/02 05:58:17;;;;;;;2.65;1.00;;;26.60;50.40;;;;;;4165337;28;20048;-43
2022/12/02 06:00:40;;;;;;;3.28;1.00;;;26.70;50.40;;;;;;4153331;28;20492;-43
2022/12/02 06:03:07;;;;;;;1.63;1.13;;;26.70;50.30;;;;;;4171406;28;20076;-43
2022/12/02 06:05:40;;;;;;;1.67;1.05;;;26.70;50.30;;;;;;4157669;28;20801;-45
2022/12/02 06:08:22;;;;;;;2.47;1.40;;;26.60;50.20;;;;;;4164972;28;20465;-44
2022/12/02 06:10:59;;;;;;;1.30;0.85;;;26.60;50.30;;;;;;4168770;28;20496;-42
2022/12/02 06:13:25;;;;;;;2.55;1.33;;;26.60;50.30;;;;;;4163252;28;20274;-43
2022/12/02 06:15:49;;;;;;;2.00;1.00;;;26.50;50.30;;;;;;4163883;28;20036;-43
2022/12/02 06:18:23;;;;;;;1.92;1.10;;;26.50;50.40;;;;;;4162362;28;20171;-46
2022/12/02 06:20:51;;;;;;;2.72;1.27;;;26.60;50.40;;;;;;4158394;28;20881;-43
2022/12/02 06:23:17;;;;;;;4.38;1.10;;;26.60;50.50;;;;;;4160631;28;20040;-46
2022/12/02 06:25:39;;;;;;;3.30;1.23;;;26.60;50.40;;;;;;4167472;28;20044;-48
2022/12/02 06:28:10;;;;;;;1.75;1.02;;;26.60;50.50;;;;;;4160576;28;20057;-43
2022/12/02 06:30:34;;;;;;;2.85;1.17;;;26.60;50.40;;;;;;4163221;28;20554;-43
2022/12/02 06:32:58;;;;;;;;;;;26.60;50.40;;;;;;4162544;28;20119;-51
2022/12/02 06:35:25;;;;;;;1.17;0.80;;;26.60;50.30;;;;;;4151334;28;19913;-48
2022/12/02 06:37:49;;;;;;;3.00;1.13;;;26.60;50.30;;;;;;4164370;28;20691;-48
2022/12/02 06:40:30;;;;;;;;;;;26.70;50.20;;;;;;4158899;28;20037;-42
2022/12/02 06:42:53;;;;;;;1.88;1.20;;;26.60;50.10;;;;;;4167884;28;20010;-44
2022/12/02 06:45:24;;;;;;;2.22;1.13;;;26.60;50.10;;;;;;4147469;28;20411;-48
2022/12/02 06:47:48;;;;;;;1.55;0.90;;;26.60;50.10;;;;;;4140623;28;21681;-44
2022/12/02 06:50:46;;;;;;;2.33;0.90;;;26.60;50.10;;;;;;4156280;28;20513;-44
2022/12/02 06:53:17;;;;;;;2.55;1.10;;;26.50;50.10;;;;;;4157502;28;20036;-48
2022/12/02 06:55:39;;;;;;;2.85;1.02;;;26.60;50.20;;;;;;4148052;28;20044;-45
2022/12/02 06:58:34;;;;;;;2.97;1.10;;;26.50;50.20;;;;;;4157636;28;20728;-44
2022/12/02 07:01:27;;;;;;;1.83;0.90;;;26.50;50.30;;;;;;4154372;28;20072;-42
2022/12/02 07:04:10;;;;;;;2.83;1.30;;;26.50;50.30;;;;;;4162549;28;20037;-43
2022/12/02 07:06:35;;;;;;;1.58;0.77;;;26.50;50.40;;;;;;4154247;28;20051;-43
2022/12/02 07:09:13;;;;;;;0.88;0.85;;;26.40;50.40;;;;;;4149804;28;20034;-45
2022/12/02 07:11:49;;;;;;;2.40;1.00;;;26.40;50.40;;;;;;4152050;28;20041;-45
2022/12/02 07:14:24;;;;;;;1.95;1.00;;;26.40;50.40;;;;;;4127330;28;20481;-41
2022/12/02 07:16:48;;;;;;;4.45;1.20;;;26.30;50.40;;;;;;4129499;28;20463;-48
2022/12/02 07:19:20;;;;;;;2.25;1.10;;;26.30;50.70;;;;;;4140729;28;20405;-42
2022/12/02 07:21:43;;;;;;;1.83;0.70;;;26.30;50.50;;;;;;4137963;28;20481;-44
2022/12/02 07:24:08;;;;;;;3.10;1.10;;;26.30;50.50;;;;;;4135656;28;20030;-46
2022/12/02 07:26:31;;;;;;;1.48;1.05;;;26.20;50.40;;;;;;4136928;28;20912;-42
2022/12/02 07:29:00;;;;;;;2.13;0.85;;;26.30;50.50;;;;;;4122562;28;20336;-46
2022/12/02 07:31:26;;;;;;;1.73;0.63;;;26.20;50.60;;;;;;4138260;28;20033;-43
2022/12/02 07:33:49;;;;;;;1.50;0.88;;;26.20;50.60;;;;;;4145599;28;20037;-44
2022/12/02 07:36:12;;;;;;;1.83;0.75;;;26.20;50.70;;;;;;4137136;28;20366;-48
2022/12/02 07:38:34;;;;;;;1.75;0.88;;;26.10;50.70;;;;;;4150082;28;20164;-43
2022/12/02 07:40:57;;;;;;;1.60;0.90;;;26.10;50.70;;;;;;4141512;28;20428;-44
2022/12/02 07:43:19;;;;;;;4.20;1.02;;;26.10;50.80;;;;;;4136466;28;20096;-42
2022/12/02 07:45:42;;;;;;;4.38;1.05;;;26.10;50.90;;;;;;4142853;28;20052;-44
2022/12/02 07:48:05;;;;;;;2.90;1.23;;;26.00;51.10;;;;;;4140640;28;20042;-42
2022/12/02 07:50:27;;;;;;;2.28;0.90;;;26.00;51.20;;;;;;4141404;28;20037;-44
2022/12/02 07:52:50;;;;;;;3.08;1.25;;;26.00;51.30;;;;;;4135581;28;20041;-42
2022/12/02 07:55:12;;;;;;;3.47;1.20;;;25.90;51.30;;;;;;4145843;28;20045;-42
2022/12/02 07:57:36;;;;;;;2.28;1.20;;;25.90;51.40;;;;;;4136444;28;20068;-43
2022/12/02 07:59:58;;;;;;;3.13;1.27;;;25.90;51.70;;;;;;4131514;28;20044;-43
2022/12/02 08:02:21;;;;;;;2.38;1.10;;;25.90;51.80;;;;;;4157293;28;20366;-42
2022/12/02 08:04:44;;;;;;;2.10;1.38;;;25.90;52.00;;;;;;4158880;28;20441;-43
2022/12/02 08:07:07;;;;;;;3.45;1.30;;;25.90;52.00;;;;;;4170714;28;20542;-46
2022/12/02 08:09:29;;;;;;;3.22;1.52;;;25.90;52.30;;;;;;4169909;28;20498;-43
2022/12/02 08:11:52;;;;;;;1.17;0.82;;;25.80;52.10;;;;;;4167097;28;20044;-44
2022/12/02 08:14:14;;;;;;;1.90;1.27;;;25.80;52.10;;;;;;4162617;28;20044;-47
2022/12/02 08:16:37;;;;;;;4.18;1.92;;;25.80;52.20;;;;;;4158716;28;20047;-47
2022/12/02 08:19:00;;;;;;;4.18;1.50;;;25.80;52.40;;;;;;4167620;28;20511;-47
2022/12/02 08:21:22;;;;;;;2.47;1.17;;;25.80;52.30;;;;;;4161556;28;20483;-47
2022/12/02 08:23:45;;;;;;;5.05;1.30;;;25.70;52.30;;;;;;4169995;28;20036;-42
2022/12/02 08:26:07;;;;;;;3.03;1.25;;;25.70;52.40;;;;;;4170937;28;20037;-42
2022/12/02 08:28:30;;;;;;;2.65;1.17;;;25.70;52.40;;;;;;4168240;28;20037;-45
2022/12/02 08:30:53;;;;;;;2.95;1.45;;;25.70;52.40;;;;;;4172538;28;20051;-44
2022/12/02 08:33:16;;;;;;;2.03;0.90;;;25.70;52.50;;;;;;4169056;28;20040;-42
2022/12/02 08:35:38;;;;;;;2.80;1.15;;;25.70;52.50;;;;;;4163270;28;20593;-42
2022/12/02 08:38:01;;;;;;;4.72;1.27;;;25.70;52.60;;;;;;4159707;28;20056;-42
2022/12/02 08:40:23;;;;;;;1.95;1.23;;;25.70;52.50;;;;;;4168543;28;20033;-42
2022/12/02 08:42:46;;;;;;;1.52;1.33;;;25.70;52.50;;;;;;4169017;28;20071;-43
2022/12/02 08:45:09;;;;;;;1.42;0.85;;;25.60;52.50;;;;;;4161614;28;20040;-41
2022/12/02 08:47:31;;;;;;;2.37;1.30;;;25.60;52.40;;;;;;4165353;28;20465;-42
2022/12/02 08:49:54;;;;;;;2.80;0.90;;;25.60;52.50;;;;;;4165762;28;20468;-42
2022/12/02 08:52:16;;;;;;;3.05;1.33;;;25.60;52.50;;;;;;4163765;28;20182;-42
2022/12/02 08:54:42;;;;;;;3.03;1.17;;;25.60;52.50;;;;;;4172336;28;20087;-44
2022/12/02 08:57:08;;;;;;;2.50;1.30;;;25.60;52.40;;;;;;4174191;28;20032;-41
2022/12/02 08:59:30;;;;;;;2.97;1.50;;;25.50;52.40;;;;;;4161794;28;20066;-43
2022/12/02 09:01:53;;;;;;;4.68;1.10;;;25.50;52.30;;;;;;4162516;28;20207;-45
2022/12/02 09:04:15;;;;;;;3.33;1.17;;;25.50;52.50;;;;;;4167529;28;20047;-42
2022/12/02 09:06:38;;;;;;;2.15;1.30;;;25.50;52.40;;;;;;4156490;28;20509;-42
2022/12/02 09:09:01;;;;;;;2.58;0.90;;;25.50;52.50;;;;;;4146715;28;20472;-45
2022/12/02 09:11:24;;;;;;;3.47;1.13;;;25.50;52.50;;;;;;4147179;28;20100;-49
2022/12/02 09:13:46;;;;;;;2.03;1.00;;;25.50;52.50;;;;;;4142373;28;20042;-42
2022/12/02 09:16:09;;;;;;;1.67;0.98;;;25.40;52.50;;;;;;4148844;28;20042;-43
2022/12/02 09:18:31;;;;;;;1.55;1.00;;;25.40;52.50;;;;;;4142483;28;20140;-44
2022/12/02 09:20:54;;;;;;;1.50;0.90;;;25.40;52.50;;;;;;4150523;28;20068;-41
2022/12/02 09:23:16;;;;;;;3.13;1.25;;;25.40;52.50;;;;;;4151624;28;20045;-45
2022/12/02 09:25:39;;;;;;;1.48;0.93;;;25.40;52.40;;;;;;4156437;28;20044;-44
2022/12/02 09:28:01;;;;;;;1.60;0.95;;;25.40;52.50;;;;;;4151932;28;20116;-43
2022/12/02 09:30:24;;;;;;;2.55;1.27;;;25.40;52.40;;;;;;4146166;28;20528;-42
2022/12/02 09:32:46;;;;;;;1.90;1.20;;;25.40;52.40;;;;;;4153888;28;20160;-51
2022/12/02 09:35:09;;;;;;;3.17;1.25;;;25.40;52.30;;;;;;4146737;28;20170;-42
2022/12/02 09:37:32;;;;;;;2.42;0.82;;;25.40;52.40;;;;;;4147212;28;20403;-42
2022/12/02 09:39:54;;;;;;;1.88;0.85;;;25.40;52.30;;;;;;4149985;28;20163;-43
2022/12/02 09:42:18;;;;;;;1.90;0.80;;;25.40;52.30;;;;;;4143643;28;20515;-43
2022/12/02 09:44:42;;;;;;;2.08;0.98;;;25.30;52.30;;;;;;4146907;28;20072;-44
2022/12/02 09:47:05;;;;;;;1.27;0.60;;;25.30;52.30;;;;;;4152736;28;20516;-44
2022/12/02 09:49:28;;;;;;;1.77;0.90;;;25.30;52.30;;;;;;4152901;28;20057;-42
2022/12/02 09:51:52;;;;;;;2.03;1.10;;;25.30;52.20;;;;;;4145524;28;20155;-41
2022/12/02 09:54:16;;;;;;;1.48;1.10;;;25.30;52.20;;;;;;4141306;28;20061;-45
2022/12/02 09:56:40;;;;;;;1.73;0.98;;;25.20;52.40;;;;;;4144289;28;20513;-46
2022/12/02 09:59:02;;;;;;;;;;;25.20;52.20;;;;;;4156396;28;20396;-43
2022/12/02 10:01:26;;;;;;;1.63;0.80;;;25.20;52.20;;;;;;4146519;28;20400;-45
2022/12/02 10:03:51;;;;;;;1.25;0.77;;;25.20;52.20;;;;;;4146681;28;20040;-42
2022/12/02 10:06:27;;;;;;;1.15;0.80;;;25.20;52.20;;;;;;4157040;28;20053;-43
2022/12/02 10:08:50;;;;;;;1.70;0.90;;;25.20;52.20;;;;;;4174278;22;20072;-58
2022/12/02 10:11:28;;;;;;;0.75;0.70;;;25.20;52.10;;;;;;4153746;28;20041;-59
2022/12/02 10:13:51;;;;;;;1.50;0.82;;;25.10;52.10;;;;;;4152454;28;20049;-59
2022/12/02 10:16:14;;;;;;;2.65;0.88;;;25.10;52.10;;;;;;4153305;28;20345;-59
2022/12/02 10:18:37;;;;;;;3.50;1.20;;;25.10;52.20;;;;;;4152211;28;20081;-58
2022/12/02 10:21:00;;;;;;;2.92;1.27;;;25.10;52.10;;;;;;4150456;28;20112;-59
2022/12/02 10:23:27;;;;;;;2.42;1.00;;;25.10;52.20;;;;;;4148817;28;20092;-58
2022/12/02 10:26:14;;;;;;;1.75;1.02;;;25.10;52.30;;;;;;4139824;28;20029;-58
2022/12/02 10:28:38;;;;;;;2.30;1.02;;;25.10;53.00;;;;;;4153440;28;20293;-58
2022/12/02 10:31:18;;;;;;;2.30;1.13;;;25.00;52.30;;;;;;4154038;28;20044;-59
2022/12/02 10:34:02;;;;;;;1.50;0.90;;;25.00;52.40;;;;;;4148444;28;20582;-59
2022/12/02 10:36:37;;;;;;;1.67;0.95;;;25.00;52.30;;;;;;4152238;28;20518;-59
2022/12/02 10:41:14;;;;;;;2.03;0.90;;;25.00;52.50;;;;;;4152553;28;20532;-45
2022/12/02 10:43:37;;;;;;;2.58;1.33;;;24.90;52.50;;;;;;4151885;28;20116;-43
2022/12/02 10:46:00;;;;;;;3.35;0.88;;;24.90;52.60;;;;;;4150935;28;20037;-43
2022/12/02 10:48:23;;;;;;;1.00;0.65;;;24.90;52.60;;;;;;4148405;28;20052;-47
2022/12/02 10:50:45;;;;;;;3.70;1.13;;;24.90;52.60;;;;;;4151166;28;20037;-48
2022/12/02 10:53:16;;;;;;;2.25;0.93;;;24.90;52.80;;;;;;4147374;28;20045;-49
2022/12/02 10:57:43;;;;;;;2.60;1.03;;;24.80;52.70;;;;;;4117110;28;20520;-37
2022/12/02 11:00:17;;;;;;;2.30;0.90;;;24.80;52.80;;;;;;4115138;28;20606;-37
2022/12/02 11:02:49;;;;;;;2.85;1.20;;;24.80;52.80;;;;;;4118302;28;20091;-37
2022/12/02 11:05:24;;;;;;;1.83;0.90;;;24.80;52.90;;;;;;4125071;28;20041;-38
2022/12/02 11:08:01;;;;;;;1.25;0.80;;;24.80;52.90;;;;;;4124634;28;20066;-38
2022/12/02 11:10:27;;;;;;;2.38;1.00;;;24.80;53.00;;;;;;4123134;28;20500;-39
2022/12/02 11:13:00;;;;;;;2.03;0.98;;;24.80;53.00;;;;;;4126634;28;20587;-41
2022/12/02 11:15:48;;;;;;;1.52;1.00;;;24.80;53.00;;;;;;4130821;28;20117;-38
2022/12/02 11:18:24;;;;;;;2.50;1.10;;;24.70;53.00;;;;;;4114433;28;20437;-41
2022/12/02 11:20:48;;;;;;;2.85;1.20;;;24.70;53.00;;;;;;4121063;28;20042;-39
2022/12/02 11:23:29;;;;;;;1.88;1.00;;;24.70;53.10;;;;;;4121764;28;20117;-37
2022/12/02 11:26:09;;;;;;;1.98;1.02;;;24.70;53.20;;;;;;4117489;28;20042;-38
2022/12/02 11:28:37;;;;;;;3.00;1.30;;;24.70;53.20;;;;;;4126852;28;20053;-38
2022/12/02 11:31:12;;;;;;;2.33;1.23;;;24.60;53.20;;;;;;4123825;28;20068;-37
2022/12/02 11:33:48;;;;;;;1.95;1.10;;;24.60;53.20;;;;;;4134964;28;20046;-37
2022/12/02 11:36:20;;;;;;;2.35;1.25;;;24.60;53.20;;;;;;4122561;28;20819;-38
2022/12/02 11:39:01;;;;;;;2.88;1.33;;;24.60;53.30;;;;;;4114800;28;20045;-37
2022/12/02 11:41:29;;;;;;;14.68;1.98;;;24.60;53.50;;;;;;4126715;28;20871;-38
2022/12/02 11:43:59;;;;;;;4.75;1.15;;;24.60;54.10;;;;;;4109916;28;20143;-37
2022/12/02 11:46:55;;;;;;;4.93;1.48;;;24.60;54.30;;;;;;4109954;28;20073;-37
2022/12/02 11:49:27;;;;;;;5.00;1.40;;;24.60;54.30;;;;;;4110281;28;20493;-37
2022/12/02 11:51:50;;;;;;;5.60;1.45;;;24.60;54.50;;;;;;4111847;28;20432;-38
2022/12/02 11:54:17;;;;;;;5.18;1.25;;;24.60;54.60;;;;;;4114130;28;20194;-38
2022/12/02 11:56:42;;;;;;;5.55;1.35;;;24.60;54.70;;;;;;4117260;28;20058;-38
2022/12/02 11:59:26;;;;;;;7.70;1.20;;;24.60;54.80;;;;;;4120049;28;20414;-38
2022/12/02 12:01:50;;;;;;;4.47;1.10;;;24.60;54.90;;;;;;4119511;28;20042;-38
2022/12/02 12:04:27;;;;;;;5.50;1.13;;;24.60;54.90;;;;;;4122884;28;20046;-37
2022/12/02 12:06:58;;;;;;;21.02;2.55;;;24.60;55.20;;;;;;4121477;28;20378;-38
2022/12/02 12:09:20;;;;;;;22.45;2.67;;;24.60;55.40;;;;;;4118313;28;20034;-36
2022/12/02 12:11:43;;;;;;;16.60;2.38;;;24.70;55.50;;;;;;4116367;28;20042;-37
2022/12/02 12:14:05;;;;;;;13.07;2.08;;;24.70;55.40;;;;;;4123321;28;20030;-36
2022/12/02 12:16:34;;;;;;;11.68;2.10;;;24.70;55.30;;;;;;4124450;28;20172;-37
2022/12/02 12:18:56;;;;;;;3.65;1.08;;;24.70;55.40;;;;;;4125337;28;20173;-38
2022/12/02 12:21:31;;;;;;;5.88;1.15;;;24.70;55.50;;;;;;4121885;28;20042;-38
2022/12/02 12:23:53;;;;;;;9.68;1.50;;;24.70;55.50;;;;;;4114172;28;20052;-37
2022/12/02 12:26:33;;;;;;;7.53;1.33;;;24.70;55.50;;;;;;4127220;28;20042;-36
2022/12/02 12:29:00;;;;;;;3.70;0.88;;;24.70;55.60;;;;;;4121999;28;20282;-39
2022/12/02 12:31:22;;;;;;;5.65;1.30;;;24.70;55.50;;;;;;4118208;28;20038;-42
2022/12/02 12:33:45;;;;;;;3.78;0.82;;;24.70;55.60;;;;;;4123641;28;20409;-37
2022/12/02 12:36:08;;;;;;;6.18;1.27;;;24.70;55.60;;;;;;4117068;28;20040;-36
2022/12/02 12:38:30;;;;;;;4.10;1.20;;;24.70;55.60;;;;;;4123933;28;20043;-38
2022/12/02 12:40:53;;;;;;;15.55;2.70;;;24.70;55.60;;;;;;4125207;28;20048;-37
2022/12/02 12:43:16;;;;;;;7.80;1.45;;;24.70;55.70;;;;;;4111955;28;20039;-36
2022/12/02 12:45:38;;;;;;;11.70;1.58;;;24.70;55.70;;;;;;4118233;28;20041;-37
2022/12/02 12:48:01;;;;;;;9.80;1.58;;;24.70;55.60;;;;;;4120698;28;20057;-38
2022/12/02 12:50:24;;;;;;;15.52;1.45;;;24.60;55.60;;;;;;4116996;28;20456;-38